Everglades National Park, FL

5:14 AM EDT on August 30, 2016 (GMT -0400)
Westbury Estates | | Change Station

Elev 23 ft 25.49 °N, 80.50 °W | Updated 15 seconds ago

Heavy Rain
Heavy Rain Mist
75.9 °F
Feels Like 75 °F
N
0.0
Wind Variable Wind from East
Gusts 0.0 mph

Today
High -- | Low -- °F
--% Chance of Precip.
Yesterday
High -- | Low -- °F
Precip. -- in
Pressure 29.89 in
Visibility 5.0 miles
Clouds Mostly Cloudy 3300 ft
Heat Index 75 °F
Dew Point 75 °F
Humidity 96%
Rainfall 0.37 in
Snow Depth Not available.
7:01 AM 7:42 PM
Waning Crescent, 4% visible
METAR KHST 300858Z 13003KT 5SM +RA BR BKN033 24/22 A2989 RMK SLP122 60049 56004
Pressure 29.89 in
Visibility 5.0 miles
Clouds Mostly Cloudy 3300 ft
Heat Index 75 °F
Dew Point 75 °F
Humidity 96%
Rainfall 0.37 in
Snow Depth Not available.
7:01 AM 7:42 PM
Waning Crescent, 4% visible
METAR KHST 300858Z 13003KT 5SM +RA BR BKN033 24/22 A2989 RMK SLP122 60049 56004

10-Day Weather Forecast

Almanac

Astronomy

Aug. 30, 2016 Rise Set
Actual Time
Civil Twilight
Nautical Twilight
Astronomical Twilight
Moon
Length of Visible Light
Length of Day
Tomorrow will be .
, % of the Moon is Illuminated

Today's Extremes

State Highs State Lows

Community

WunderPhotos

Upload Photos

1,935,795 photos uploaded!

WunderBlog® & News

Nearby

Air Quality

  Air Quality AQ Index Pollutant
Not available.

Snow Depth

Station Depth Elevation

Earthquake Activity

City Distance Mag. Time & Date
Minimum magnitude displayed is 2.5.

Coastal Water Temperatures

Place Temperature

Stations

Nearby Weather Stations

Station Location Temp. Windchill Dew Point Humidity Wind Precip. Elev Updated Type
                   

Watches & Warnings

There are currently no watches in effect.